createdAt,value
2019-04-11T00:00:35.946Z,0
2019-04-11T00:01:16.411Z,0
2019-04-11T00:01:56.714Z,0
2019-04-11T00:02:37.104Z,0
2019-04-11T00:03:17.487Z,0
2019-04-11T00:03:57.858Z,0
2019-04-11T00:04:38.318Z,0
2019-04-11T00:05:18.901Z,0
2019-04-11T00:05:59.358Z,0
2019-04-11T00:06:39.492Z,0
2019-04-11T00:07:20.402Z,0
2019-04-11T00:08:00.259Z,0
2019-04-11T00:08:41.620Z,0
2019-04-11T00:09:21.065Z,0
2019-04-11T00:10:01.473Z,0
2019-04-11T00:10:41.854Z,0
2019-04-11T00:11:22.257Z,0
2019-04-11T00:12:02.644Z,0
2019-04-11T00:12:43.074Z,0
2019-04-11T00:13:26.694Z,0
2019-04-11T00:14:03.841Z,0
2019-04-11T00:14:45.495Z,0
2019-04-11T00:15:24.670Z,0
2019-04-11T00:16:05.023Z,0
2019-04-11T00:16:45.675Z,0
2019-04-11T00:17:25.905Z,0
2019-04-11T00:18:06.261Z,0
2019-04-11T00:18:47.127Z,0
2019-04-11T00:19:27.351Z,0
2019-04-11T00:20:07.688Z,0
2019-04-11T00:20:48.477Z,0
2019-04-11T00:21:28.832Z,0
2019-04-11T00:22:08.988Z,0
2019-04-11T00:22:49.908Z,0
2019-04-11T00:23:30.228Z,0
2019-04-11T00:24:10.388Z,0
2019-04-11T00:24:51.236Z,0
2019-04-11T00:25:31.661Z,0
2019-04-11T00:26:11.789Z,0
2019-04-11T00:26:51.398Z,0
2019-04-11T00:27:32.910Z,0
2019-04-11T00:28:13.169Z,0
2019-04-11T00:28:52.609Z,0
2019-04-11T00:29:32.980Z,0
2019-04-11T00:30:13.417Z,0
2019-04-11T00:30:54.658Z,0
2019-04-11T00:31:34.172Z,0
2019-04-11T00:32:14.638Z,0
2019-04-11T00:32:56.037Z,0
2019-04-11T00:33:35.423Z,0
2019-04-11T00:34:15.828Z,0
2019-04-11T00:34:57.085Z,0
2019-04-11T00:35:36.623Z,0
2019-04-11T00:36:17.035Z,0
2019-04-11T00:36:57.468Z,0
2019-04-11T00:37:38.010Z,0
2019-04-11T00:38:18.202Z,0
2019-04-11T00:38:59.342Z,0
2019-04-11T00:39:39.614Z,0
2019-04-11T00:40:19.950Z,0
2019-04-11T00:40:59.793Z,0
2019-04-11T00:41:40.092Z,0
2019-04-11T00:42:20.800Z,0
2019-04-11T00:43:01.133Z,0
2019-04-11T00:43:42.457Z,0
2019-04-11T00:44:21.726Z,0
2019-04-11T00:45:03.235Z,0
2019-04-11T00:45:43.526Z,0
2019-04-11T00:46:23.015Z,0
2019-04-11T00:47:03.384Z,0
2019-04-11T00:47:44.881Z,0
2019-04-11T00:48:24.263Z,0
2019-04-11T00:49:04.639Z,0
2019-04-11T00:49:45.282Z,0
2019-04-11T00:50:25.437Z,0
2019-04-11T00:51:05.871Z,0
2019-04-11T00:51:46.268Z,0
2019-04-11T00:52:27.476Z,0
2019-04-11T00:53:07.109Z,0
2019-04-11T00:53:47.488Z,0
2019-04-11T00:54:28.872Z,0
2019-04-11T00:55:08.279Z,0
2019-04-11T00:55:48.708Z,0
2019-04-11T00:56:29.086Z,0
2019-04-11T00:57:09.521Z,0
2019-04-11T00:57:49.956Z,0
2019-04-11T00:58:30.373Z,0
2019-04-11T00:59:10.709Z,0
2019-04-11T00:59:51.105Z,0
2019-04-11T01:00:31.519Z,0
2019-04-11T01:01:11.960Z,0
2019-04-11T01:01:53.307Z,0
2019-04-11T01:02:33.634Z,0
2019-04-11T01:03:13.791Z,0
2019-04-11T01:03:53.726Z,0
2019-04-11T01:04:34.903Z,0
2019-04-11T01:05:15.126Z,0
2019-04-11T01:05:55.515Z,0
2019-04-11T01:06:36.411Z,0
2019-04-11T01:07:16.524Z,0
2019-04-11T01:07:56.592Z,0
2019-04-11T01:08:36.455Z,0
2019-04-11T01:09:17.923Z,0
2019-04-11T01:09:57.317Z,0
2019-04-11T01:10:37.819Z,0
2019-04-11T01:11:18.211Z,0
2019-04-11T01:11:58.673Z,0
2019-04-11T01:12:39.044Z,0
2019-04-11T01:13:19.464Z,0
2019-04-11T01:13:59.882Z,0
2019-04-11T01:14:40.630Z,0
2019-04-11T01:15:21.593Z,0
2019-04-11T01:16:01.083Z,0
2019-04-11T01:16:41.490Z,0
2019-04-11T01:17:21.932Z,0
2019-04-11T01:18:03.514Z,0
2019-04-11T01:18:42.757Z,0
2019-04-11T01:19:23.168Z,0
2019-04-11T01:20:03.592Z,0
2019-04-11T01:20:43.985Z,0
2019-04-11T01:21:24.421Z,0
2019-04-11T01:22:05.713Z,0
2019-04-11T01:22:45.229Z,0
2019-04-11T01:23:25.637Z,0
2019-04-11T01:24:06.980Z,0
2019-04-11T01:24:46.457Z,0
2019-04-11T01:25:26.834Z,0
2019-04-11T01:26:07.266Z,0
2019-04-11T01:26:47.682Z,0
2019-04-11T01:27:28.082Z,0
2019-04-11T01:28:08.485Z,0
2019-04-11T01:28:49.115Z,0
2019-04-11T01:29:29.319Z,0
2019-04-11T01:30:09.703Z,0
2019-04-11T01:30:51.259Z,0
2019-04-11T01:31:30.529Z,0
2019-04-11T01:34:04.370Z,0
2019-04-11T01:34:44.598Z,0
2019-04-11T01:35:24.220Z,0
2019-04-11T01:36:04.845Z,0
2019-04-11T01:36:45.100Z,0
2019-04-11T01:37:25.983Z,0
2019-04-11T01:38:06.217Z,0
2019-04-11T01:38:46.381Z,0
2019-04-11T01:39:27.852Z,0
2019-04-11T01:40:07.754Z,0
2019-04-11T01:40:47.713Z,0
2019-04-11T01:41:28.788Z,0
2019-04-11T01:42:09.101Z,0
2019-04-11T01:42:49.233Z,0
2019-04-11T01:43:29.578Z,0
2019-04-11T01:44:09.437Z,0
2019-04-11T01:44:49.789Z,0
2019-04-11T01:45:30.200Z,0
2019-04-11T01:46:10.735Z,0
2019-04-11T01:46:50.935Z,0
2019-04-11T01:47:31.337Z,0
2019-04-11T01:48:11.721Z,0
2019-04-11T01:48:52.178Z,0
2019-04-11T01:49:32.543Z,0
2019-04-11T01:50:12.937Z,0
2019-04-11T01:50:53.621Z,0
2019-04-11T01:51:33.940Z,0
2019-04-11T01:52:14.204Z,0
2019-04-11T01:52:54.985Z,0
2019-04-11T01:53:35.279Z,0
2019-04-11T01:54:15.441Z,0
2019-04-11T01:54:56.386Z,0
2019-04-11T01:55:36.715Z,0
2019-04-11T01:56:16.904Z,0
2019-04-11T01:56:57.982Z,0
2019-04-11T01:57:38.101Z,0
2019-04-11T01:58:18.355Z,0
2019-04-11T01:58:59.305Z,0
2019-04-11T01:59:39.578Z,0
2019-04-11T02:00:19.684Z,0
2019-04-11T02:01:00.702Z,0
2019-04-11T02:01:40.783Z,0
2019-04-11T02:02:21.215Z,0
2019-04-11T02:03:01.198Z,0
2019-04-11T02:03:41.402Z,0
2019-04-11T02:04:21.648Z,0
2019-04-11T02:05:02.835Z,0
2019-04-11T02:05:43.283Z,0
2019-04-11T02:06:23.642Z,0
2019-04-11T02:07:03.253Z,0
2019-04-11T02:07:44.791Z,0
2019-04-11T02:08:24.819Z,0
2019-04-11T02:09:04.397Z,0
2019-04-11T02:09:44.852Z,0
2019-04-11T02:10:26.462Z,0
2019-04-11T02:11:06.976Z,0
2019-04-11T02:11:46.041Z,0
2019-04-11T02:12:26.887Z,0
2019-04-11T02:13:07.840Z,0
2019-04-11T02:13:48.157Z,0
2019-04-11T02:14:27.958Z,0
2019-04-11T02:15:08.321Z,0
2019-04-11T02:15:48.495Z,0
2019-04-11T02:16:29.321Z,0
2019-04-11T02:17:10.419Z,0
2019-04-11T02:17:50.815Z,0
2019-04-11T02:18:30.086Z,0
2019-04-11T02:19:10.589Z,0
2019-04-11T02:19:50.960Z,0
2019-04-11T02:20:31.321Z,0
2019-04-11T02:21:11.731Z,0
2019-04-11T02:21:52.105Z,0
2019-04-11T02:22:32.759Z,0
2019-04-11T02:23:13.057Z,0
2019-04-11T02:23:53.315Z,0
2019-04-11T02:24:34.142Z,0
2019-04-11T02:25:14.459Z,0
2019-04-11T02:25:54.561Z,0
2019-04-11T02:26:35.613Z,0
2019-04-11T02:27:15.295Z,0
2019-04-11T02:27:56.029Z,0
2019-04-11T02:28:36.979Z,0
2019-04-11T02:29:17.304Z,0
2019-04-11T02:29:56.855Z,0
2019-04-11T02:30:39.116Z,0
2019-04-11T02:31:19.556Z,0
2019-04-11T02:32:01.177Z,0
2019-04-11T02:32:40.205Z,0
2019-04-11T02:33:18.787Z,0
2019-04-11T02:33:59.464Z,0
2019-04-11T02:34:40.175Z,0
2019-04-11T02:35:21.747Z,0
2019-04-11T02:36:00.803Z,0
2019-04-11T02:36:40.754Z,0
2019-04-11T02:37:21.889Z,0
2019-04-11T02:38:02.897Z,0
2019-04-11T02:38:41.956Z,0
2019-04-11T02:39:24.106Z,0
2019-04-11T02:40:03.194Z,0
2019-04-11T02:40:43.625Z,0
2019-04-11T02:41:25.260Z,0
2019-04-11T02:42:04.146Z,0
2019-04-11T02:42:45.608Z,0
2019-04-11T02:43:25.606Z,0
2019-04-11T02:44:05.874Z,0
2019-04-11T02:44:59.119Z,0
2019-04-11T02:45:39.624Z,0
2019-04-11T02:46:16.610Z,0
2019-04-11T02:46:54.044Z,0
2019-04-11T02:47:31.728Z,0
2019-04-11T02:48:09.223Z,0
2019-04-11T02:48:47.968Z,0
2019-04-11T02:49:28.447Z,0
2019-04-11T02:50:10.396Z,0
2019-04-11T02:50:50.326Z,0
2019-04-11T02:51:31.116Z,0
2019-04-11T02:52:11.212Z,0
2019-04-11T02:52:51.976Z,0
2019-04-11T02:53:32.523Z,0
2019-04-11T02:54:11.585Z,0
2019-04-11T02:54:52.635Z,0
2019-04-11T02:55:33.383Z,0
2019-04-11T02:56:12.567Z,0
2019-04-11T02:56:54.541Z,0
2019-04-11T02:57:34.246Z,0
2019-04-11T02:58:14.494Z,0
2019-04-11T02:58:54.653Z,0
2019-04-11T02:59:34.616Z,0
2019-04-11T03:00:15.833Z,0
2019-04-11T03:00:55.840Z,0
2019-04-11T03:01:36.293Z,0
2019-04-11T03:02:18.936Z,0
2019-04-11T03:02:56.964Z,0
2019-04-11T03:03:37.322Z,0
2019-04-11T03:04:20.000Z,0
2019-04-11T03:04:57.812Z,0
2019-04-11T03:05:39.357Z,0
2019-04-11T03:06:19.376Z,0
2019-04-11T03:07:00.002Z,0
2019-04-11T03:07:40.083Z,0
2019-04-11T03:08:21.764Z,0
2019-04-11T03:09:00.209Z,0
2019-04-11T03:09:41.610Z,0
2019-04-11T03:10:21.407Z,0
2019-04-11T03:11:01.857Z,0
2019-04-11T03:11:42.941Z,0
2019-04-11T03:12:23.943Z,0
2019-04-11T03:13:02.939Z,0
2019-04-11T03:13:44.350Z,0
2019-04-11T03:14:23.459Z,0
2019-04-11T03:15:19.761Z,0
2019-04-11T03:15:59.120Z,0
2019-04-11T03:16:35.011Z,0
2019-04-11T03:17:12.730Z,0
2019-04-11T03:17:46.564Z,0
2019-04-11T03:18:45.266Z,0
2019-04-11T03:19:20.764Z,0
2019-04-11T03:19:58.962Z,0
2019-04-11T03:20:34.258Z,0
2019-04-11T03:21:13.521Z,0
2019-04-11T03:21:47.885Z,0
2019-04-11T03:22:29.712Z,0
2019-04-11T03:23:12.035Z,0
2019-04-11T03:23:49.702Z,0
2019-04-11T03:24:31.488Z,0
2019-04-11T03:25:09.862Z,0
2019-04-11T03:25:50.231Z,0
2019-04-11T03:26:31.012Z,0
2019-04-11T03:27:11.868Z,0
2019-04-11T03:27:52.102Z,0
2019-04-11T03:28:33.454Z,0
2019-04-11T03:29:12.814Z,0
2019-04-11T03:29:53.770Z,0
2019-04-11T03:30:46.264Z,0
2019-04-11T03:31:49.468Z,0
2019-04-11T03:33:24.026Z,0
2019-04-11T03:34:37.485Z,0
2019-04-11T03:35:19.631Z,0
2019-04-11T03:37:13.398Z,0
2019-04-11T03:37:42.722Z,0
2019-04-11T03:38:18.246Z,0
2019-04-11T03:39:00.103Z,0
2019-04-11T03:39:37.350Z,0
2019-04-11T03:40:16.765Z,0
2019-04-11T03:40:56.585Z,0
2019-04-11T03:41:31.865Z,0
2019-04-11T03:42:16.745Z,0
2019-04-11T03:42:53.650Z,0
2019-04-11T03:43:33.653Z,0
2019-04-11T03:44:10.669Z,0
2019-04-11T03:44:46.821Z,0
2019-04-11T03:45:43.241Z,0
2019-04-11T03:46:19.220Z,0
2019-04-11T03:46:58.187Z,0
2019-04-11T03:47:34.650Z,0
2019-04-11T03:48:17.873Z,0
2019-04-11T03:48:55.515Z,0
2019-04-11T03:49:35.337Z,0
2019-04-11T03:50:09.239Z,0
2019-04-11T03:50:46.723Z,0
2019-04-11T03:51:27.623Z,0
2019-04-11T03:52:08.146Z,0
2019-04-11T03:52:46.759Z,0
2019-04-11T03:53:29.606Z,0
2019-04-11T03:54:09.711Z,0
2019-04-11T03:54:49.716Z,0
2019-04-11T03:55:30.623Z,0
2019-04-11T03:56:11.980Z,0
2019-04-11T03:56:51.255Z,0
2019-04-11T03:57:31.800Z,0
2019-04-11T03:58:13.151Z,0
2019-04-11T03:58:53.385Z,0
2019-04-11T03:59:33.673Z,0
2019-04-11T04:00:14.833Z,0
2019-04-11T04:00:56.857Z,0
2019-04-11T04:01:34.038Z,0
2019-04-11T04:02:15.276Z,0
2019-04-11T04:02:55.254Z,0
2019-04-11T04:03:36.582Z,0
2019-04-11T04:04:17.645Z,0
2019-04-11T04:04:57.046Z,0
2019-04-11T04:05:36.807Z,0
2019-04-11T04:06:16.935Z,0
2019-04-11T04:06:57.781Z,0
2019-04-11T04:07:38.055Z,0
2019-04-11T04:08:17.985Z,0
2019-04-11T04:08:58.511Z,0
2019-04-11T04:09:39.607Z,0
2019-04-11T04:10:19.913Z,0
2019-04-11T04:11:00.596Z,0
2019-04-11T04:11:40.816Z,0
2019-04-11T04:12:20.848Z,0
2019-04-11T04:13:02.420Z,0
2019-04-11T04:13:40.872Z,0
2019-04-11T04:14:21.459Z,0
2019-04-11T04:15:04.361Z,0
2019-04-11T04:15:55.245Z,0
2019-04-11T04:16:29.180Z,0
2019-04-11T04:17:04.126Z,0
2019-04-11T04:17:43.958Z,0
2019-04-11T04:18:24.456Z,0
2019-04-11T04:19:05.204Z,0
2019-04-11T04:19:45.621Z,0
2019-04-11T04:20:26.749Z,0
2019-04-11T04:21:06.907Z,0
2019-04-11T04:21:47.002Z,0
2019-04-11T04:22:27.237Z,0
2019-04-11T04:23:07.505Z,0
2019-04-11T04:23:47.113Z,0
2019-04-11T04:24:31.786Z,0
2019-04-11T04:25:08.228Z,0
2019-04-11T04:25:49.335Z,0
2019-04-11T04:26:29.184Z,0
2019-04-11T04:27:10.032Z,0
2019-04-11T04:27:51.197Z,0
2019-04-11T04:28:31.666Z,0
2019-04-11T04:29:11.440Z,0
2019-04-11T05:06:14.124Z,15
2019-04-11T05:06:54.891Z,15
2019-04-11T05:07:37.461Z,20
2019-04-11T05:08:14.533Z,20
2019-04-11T05:08:55.989Z,20
2019-04-11T05:09:36.127Z,20
2019-04-11T05:10:15.518Z,25
2019-04-11T05:10:55.912Z,25
2019-04-11T05:11:36.295Z,25
2019-04-11T05:12:18.237Z,30
2019-04-11T05:12:57.158Z,30
2019-04-11T05:13:38.776Z,30
2019-04-11T05:14:18.823Z,30
2019-04-11T05:14:59.148Z,35
2019-04-11T05:15:38.771Z,35
2019-04-11T05:16:19.751Z,40
2019-04-11T05:17:00.404Z,45
2019-04-11T05:17:42.354Z,55
2019-04-11T05:18:21.510Z,70
2019-04-11T05:19:01.334Z,80
2019-04-11T05:19:44.472Z,90
2019-04-11T05:20:23.909Z,100
2019-04-11T05:21:05.306Z,105
2019-04-11T05:21:45.647Z,105
2019-04-11T05:22:25.210Z,100
2019-04-11T05:23:06.325Z,100
2019-04-11T05:23:46.061Z,95
2019-04-11T05:24:26.577Z,100
2019-04-11T05:25:06.937Z,105
2019-04-11T05:25:47.291Z,110
2019-04-11T05:28:00.167Z,110
2019-04-11T05:28:40.461Z,120
2019-04-11T05:29:21.592Z,115
2019-04-11T05:30:01.229Z,120
2019-04-11T05:30:41.916Z,120
2019-04-11T05:31:22.670Z,130
2019-04-11T05:32:03.084Z,135
2019-04-11T05:32:43.568Z,140
2019-04-11T05:33:25.236Z,145
2019-04-11T05:34:04.511Z,150
2019-04-11T05:34:45.609Z,150
2019-04-11T05:35:25.189Z,150
2019-04-11T05:36:05.982Z,155
2019-04-11T05:36:47.144Z,150
2019-04-11T05:37:26.940Z,155
2019-04-11T05:39:48.213Z,185
2019-04-11T05:40:28.137Z,190
2019-04-11T05:41:11.991Z,195
2019-04-11T05:41:49.826Z,195
2019-04-11T05:42:29.287Z,200
2019-04-11T05:43:11.615Z,210
2019-04-11T05:43:52.073Z,215
2019-04-11T05:44:32.651Z,210
2019-04-11T05:45:18.186Z,215
2019-04-11T05:45:55.041Z,220
2019-04-11T05:46:46.079Z,225
2019-04-11T05:47:18.425Z,230
2019-04-11T05:47:56.658Z,235
2019-04-11T05:48:36.856Z,245
2019-04-11T05:49:20.194Z,260
2019-04-11T05:49:58.887Z,265
2019-04-11T05:50:38.197Z,265
2019-04-11T05:51:22.018Z,265
2019-04-11T05:52:00.398Z,275
2019-04-11T05:52:40.040Z,285
2019-04-11T05:53:21.307Z,290
2019-04-11T05:54:04.691Z,305
2019-04-11T05:54:42.847Z,305
2019-04-11T05:55:21.852Z,310
2019-04-11T05:56:03.645Z,315
2019-04-11T05:56:43.700Z,320
2019-04-11T05:57:27.836Z,340
2019-04-11T05:58:07.736Z,340
2019-04-11T05:58:47.290Z,350
2019-04-11T05:59:25.603Z,340
2019-04-11T06:00:05.835Z,350
2019-04-11T06:00:46.592Z,365
2019-04-11T06:01:27.771Z,365
2019-04-11T06:02:07.796Z,370
2019-04-11T06:02:47.584Z,375
2019-04-11T06:03:30.366Z,375
2019-04-11T06:04:15.160Z,370
2019-04-11T06:04:54.580Z,365
2019-04-11T06:05:33.108Z,365
2019-04-11T06:06:12.792Z,390
2019-04-11T06:06:52.782Z,400
2019-04-11T06:07:32.892Z,410
2019-04-11T06:08:19.613Z,425
2019-04-11T06:08:56.224Z,435
2019-04-11T06:09:37.012Z,445
2019-04-11T06:10:14.761Z,450
2019-04-11T06:10:54.982Z,455
2019-04-11T06:11:35.381Z,450
2019-04-11T06:12:17.055Z,450
2019-04-11T06:12:57.167Z,455
2019-04-11T06:13:37.396Z,465
2019-04-11T06:14:17.794Z,480
2019-04-11T06:16:51.969Z,530
2019-04-11T06:17:27.754Z,540
2019-04-11T06:18:08.215Z,535
2019-04-11T06:18:48.611Z,530
2019-04-11T06:19:30.329Z,535
2019-04-11T06:20:10.024Z,540
2019-04-11T06:20:51.484Z,550
2019-04-11T06:21:31.767Z,565
2019-04-11T06:22:12.968Z,570
2019-04-11T06:22:54.050Z,565
2019-04-11T06:23:35.006Z,560
2019-04-11T06:24:14.269Z,565
2019-04-11T06:24:54.555Z,555
2019-04-11T06:25:35.748Z,545
2019-04-11T06:26:16.574Z,560
2019-04-11T06:26:56.853Z,585
2019-04-11T06:27:38.491Z,610
2019-04-11T06:28:18.006Z,620
2019-04-11T06:28:59.037Z,600
2019-04-11T06:29:39.013Z,580
2019-04-11T06:30:19.978Z,595
2019-04-11T06:30:59.722Z,620
2019-04-11T06:31:40.410Z,630
2019-04-11T06:32:21.549Z,630
2019-04-11T06:33:02.515Z,635
2019-04-11T06:33:42.844Z,650
2019-04-11T06:34:24.937Z,655
2019-04-11T06:35:03.942Z,650
2019-04-11T06:35:44.141Z,660
2019-04-11T06:36:26.550Z,660
2019-04-11T06:37:05.627Z,650
2019-04-11T06:37:45.674Z,645
2019-04-11T06:38:26.726Z,650
2019-04-11T06:39:07.111Z,690
2019-04-11T06:39:47.341Z,725
2019-04-11T06:40:27.691Z,735
2019-04-11T06:41:10.281Z,735
2019-04-11T06:41:50.583Z,740
2019-04-11T06:42:31.830Z,730
2019-04-11T06:43:11.900Z,735
2019-04-11T06:43:52.148Z,760
2019-04-11T06:44:32.535Z,760
2019-04-11T06:45:13.471Z,760
2019-04-11T06:45:54.378Z,770
2019-04-11T06:46:33.843Z,770
2019-04-11T06:47:14.232Z,660
2019-04-11T06:47:54.756Z,485
2019-04-11T06:48:36.544Z,330
2019-04-11T06:49:18.263Z,300
2019-04-11T06:49:58.499Z,290
2019-04-11T06:50:39.626Z,285
2019-04-11T06:51:19.837Z,280
2019-04-11T06:52:00.188Z,285
2019-04-11T06:52:41.198Z,285
2019-04-11T06:53:21.209Z,285
2019-04-11T06:54:01.617Z,285
2019-04-11T06:54:43.306Z,290
2019-04-11T06:55:22.615Z,285
2019-04-11T06:56:03.559Z,285
2019-04-11T06:56:43.739Z,285
2019-04-11T06:57:24.240Z,285
2019-04-11T06:58:04.777Z,280
2019-04-11T06:58:45.716Z,280
2019-04-11T06:59:26.075Z,280
2019-04-11T07:00:07.183Z,275
2019-04-11T07:00:47.500Z,275
2019-04-11T07:01:27.858Z,275
2019-04-11T07:02:11.402Z,275
2019-04-11T07:02:48.655Z,275
2019-04-11T07:03:30.112Z,275
2019-04-11T07:04:09.221Z,275
2019-04-11T07:04:49.596Z,275
2019-04-11T07:05:30.617Z,270
2019-04-11T07:06:11.237Z,275
2019-04-11T07:06:51.684Z,275
2019-04-11T07:07:32.328Z,280
2019-04-11T07:08:11.353Z,280
2019-04-11T07:08:51.767Z,280
2019-04-11T07:09:32.900Z,280
2019-04-11T07:10:13.734Z,275
2019-04-11T07:10:53.842Z,275
2019-04-11T07:11:34.273Z,280
2019-04-11T07:12:15.576Z,280
2019-04-11T07:12:56.955Z,280
2019-04-11T07:13:35.666Z,275
2019-04-11T07:14:16.166Z,280
2019-04-11T07:14:56.597Z,280
2019-04-11T07:15:37.713Z,280
2019-04-11T07:16:18.515Z,285
2019-04-11T07:17:03.889Z,280
2019-04-11T07:17:38.623Z,285
2019-04-11T07:18:18.892Z,290
2019-04-11T07:19:00.599Z,290
2019-04-11T07:19:41.270Z,295
2019-04-11T07:20:20.790Z,290
2019-04-11T07:21:01.170Z,290
2019-04-11T07:21:41.905Z,280
2019-04-11T07:22:23.068Z,275
2019-04-11T07:23:03.677Z,275
2019-04-11T07:23:44.504Z,260
2019-04-11T07:24:24.672Z,240
2019-04-11T07:25:04.559Z,230
2019-04-11T07:25:45.195Z,215
2019-04-11T07:26:25.721Z,210
2019-04-11T07:27:07.356Z,200
2019-04-11T07:27:46.536Z,200
2019-04-11T07:28:27.338Z,195
2019-04-11T07:29:08.443Z,190
2019-04-11T07:29:48.534Z,190
2019-04-11T07:30:28.888Z,190
2019-04-11T07:31:10.889Z,185
2019-04-11T07:31:53.109Z,180
2019-04-11T07:32:34.211Z,180
2019-04-11T07:33:20.794Z,175
2019-04-11T07:33:56.493Z,170
2019-04-11T07:34:38.195Z,165
2019-04-11T07:35:17.753Z,165
2019-04-11T07:35:59.786Z,160
2019-04-11T07:36:40.544Z,155
2019-04-11T07:37:21.408Z,160
2019-04-11T07:38:03.096Z,155
2019-04-11T07:38:45.478Z,155
2019-04-11T07:39:24.695Z,155
2019-04-11T07:40:05.799Z,150
2019-04-11T07:40:46.093Z,150
2019-04-11T07:41:30.056Z,150
2019-04-11T07:42:11.328Z,145
2019-04-11T07:42:52.750Z,145
2019-04-11T07:43:35.496Z,140
2019-04-11T07:44:17.339Z,140
2019-04-11T07:44:57.600Z,140
2019-04-11T07:45:39.019Z,140
2019-04-11T07:46:17.969Z,135
2019-04-11T07:46:58.456Z,135
2019-04-11T07:47:38.790Z,135
2019-04-11T07:48:19.375Z,135
2019-04-11T07:49:01.488Z,130
2019-04-11T07:49:40.973Z,130
2019-04-11T07:50:21.400Z,130
2019-04-11T07:51:02.054Z,130
2019-04-11T07:51:42.956Z,125
2019-04-11T07:52:22.939Z,125
2019-04-11T07:53:03.265Z,125
2019-04-11T07:53:43.928Z,125
2019-04-11T07:54:24.314Z,120
2019-04-11T07:55:04.896Z,120
2019-04-11T07:55:45.139Z,120
2019-04-11T07:56:25.558Z,120
2019-04-11T07:57:06.199Z,120
2019-04-11T07:57:46.855Z,120
2019-04-11T07:58:27.202Z,120
2019-04-11T07:59:08.537Z,120
2019-04-11T07:59:49.051Z,120
2019-04-11T08:00:38.434Z,120
2019-04-11T08:01:10.279Z,120
2019-04-11T08:01:50.350Z,115
2019-04-11T08:02:31.142Z,115
2019-04-11T08:03:10.427Z,115
2019-04-11T08:03:51.270Z,115
2019-04-11T08:04:31.997Z,115
2019-04-11T08:05:11.835Z,115
2019-04-11T08:05:54.416Z,115
2019-04-11T08:06:33.879Z,115
2019-04-11T08:07:15.227Z,115
2019-04-11T08:07:57.399Z,115
2019-04-11T08:08:38.862Z,115
2019-04-11T08:09:19.539Z,115
2019-04-11T08:09:59.979Z,110
2019-04-11T08:10:41.548Z,110
2019-04-11T08:12:54.062Z,110
2019-04-11T08:13:34.616Z,110
2019-04-11T08:14:16.148Z,110
2019-04-11T08:14:55.697Z,105
2019-04-11T08:15:37.717Z,105
2019-04-11T08:16:22.670Z,105
2019-04-11T08:17:07.116Z,105
2019-04-11T08:17:48.060Z,105
2019-04-11T08:18:28.437Z,105
2019-04-11T08:19:07.953Z,105
2019-04-11T08:19:49.050Z,105
2019-04-11T08:20:29.272Z,105
2019-04-11T08:21:10.109Z,105
2019-04-11T08:21:53.113Z,105
2019-04-11T08:22:33.507Z,105
2019-04-11T08:23:13.961Z,105
2019-04-11T08:23:54.537Z,100
2019-04-11T08:24:36.677Z,105
2019-04-11T08:25:17.413Z,105
2019-04-11T08:25:57.737Z,105
2019-04-11T08:26:37.970Z,105
2019-04-11T08:27:18.179Z,100
2019-04-11T08:28:02.221Z,100
2019-04-11T08:28:39.104Z,100
2019-04-11T08:29:20.098Z,100
2019-04-11T08:30:00.324Z,100
2019-04-11T08:30:41.462Z,100
2019-04-11T08:31:21.527Z,100
2019-04-11T08:32:02.629Z,100
2019-04-11T08:32:42.819Z,100
2019-04-11T08:33:23.123Z,100
2019-04-11T08:34:04.655Z,100
2019-04-11T08:34:44.081Z,100
2019-04-11T08:35:24.435Z,100
2019-04-11T08:36:05.239Z,100
2019-04-11T08:36:47.131Z,100
2019-04-11T08:37:27.559Z,100
2019-04-11T08:38:07.936Z,100
2019-04-11T08:38:49.477Z,95
2019-04-11T08:39:31.249Z,95
2019-04-11T08:40:11.574Z,95
2019-04-11T08:40:53.249Z,95
2019-04-11T08:41:35.747Z,95
2019-04-11T08:42:15.070Z,95
2019-04-11T08:42:55.593Z,95
2019-04-11T08:43:37.553Z,95
2019-04-11T08:44:19.483Z,95
2019-04-11T08:44:58.894Z,95
2019-04-11T08:48:00.579Z,95
2019-04-11T08:48:48.946Z,95
2019-04-11T08:49:38.198Z,95
2019-04-11T08:50:22.754Z,95
2019-04-11T08:51:14.857Z,95
2019-04-11T08:52:03.569Z,95
2019-04-11T08:52:54.117Z,95
2019-04-11T08:53:42.766Z,90
2019-04-11T08:54:29.203Z,90
2019-04-11T08:55:15.965Z,90
2019-04-11T08:57:56.063Z,90
2019-04-11T08:58:36.384Z,90
2019-04-11T08:59:20.093Z,90
2019-04-11T09:00:00.034Z,90
2019-04-11T09:00:42.167Z,90
2019-04-11T09:01:22.250Z,90
2019-04-11T09:02:02.795Z,90
2019-04-11T09:02:44.949Z,90
2019-04-11T09:03:25.899Z,90
2019-04-11T09:04:10.492Z,90
2019-04-11T09:04:48.306Z,90
2019-04-11T09:05:29.118Z,90
2019-04-11T09:06:09.297Z,90
2019-04-11T09:06:51.250Z,90
2019-04-11T09:07:33.771Z,85
2019-04-11T09:08:14.183Z,90
2019-04-11T09:08:54.563Z,90
2019-04-11T09:09:36.222Z,90
2019-04-11T09:10:15.696Z,90
2019-04-11T09:10:56.106Z,90
2019-04-11T09:11:38.837Z,90
2019-04-11T09:12:17.002Z,85
2019-04-11T09:12:58.531Z,85
2019-04-11T09:13:38.357Z,90
2019-04-11T09:14:19.955Z,90
2019-04-11T09:15:00.251Z,90
2019-04-11T09:15:41.011Z,80
2019-04-11T09:16:21.499Z,90
2019-04-11T09:17:01.752Z,90
2019-04-11T09:17:54.733Z,90
2019-04-11T09:18:22.764Z,70
2019-04-11T09:19:03.620Z,80
2019-04-11T09:19:43.394Z,70
2019-04-11T09:20:23.844Z,95
2019-04-11T09:21:04.335Z,90
2019-04-11T09:21:46.758Z,70
2019-04-11T09:22:31.155Z,90
2019-04-11T09:23:11.395Z,85
2019-04-11T09:23:52.219Z,90
2019-04-11T09:24:32.699Z,90
2019-04-11T09:25:13.242Z,90
2019-04-11T09:25:54.972Z,90
2019-04-11T09:26:38.073Z,90
2019-04-11T09:27:18.057Z,90
2019-04-11T09:27:58.544Z,85
2019-04-11T09:28:39.699Z,65
2019-04-11T09:29:19.458Z,65
2019-04-11T09:29:59.897Z,65
2019-04-11T09:30:41.172Z,65
2019-04-11T09:31:21.193Z,65
2019-04-11T09:32:02.234Z,75
2019-04-11T09:32:42.469Z,75
2019-04-11T09:33:22.709Z,95
2019-04-11T09:34:03.718Z,90
2019-04-11T09:34:44.033Z,90
2019-04-11T09:35:24.148Z,90
2019-04-11T09:36:07.936Z,95
2019-04-11T09:39:30.960Z,95
2019-04-11T09:40:11.907Z,100
2019-04-11T09:40:54.897Z,100
2019-04-11T09:41:36.567Z,100
2019-04-11T09:42:20.172Z,80
2019-04-11T09:43:01.752Z,75
2019-04-11T09:43:44.259Z,75
2019-04-11T09:44:28.910Z,75
2019-04-11T09:46:47.387Z,95
2019-04-11T09:47:28.284Z,90
2019-04-11T09:48:13.809Z,95
2019-04-11T09:48:50.500Z,90
2019-04-11T09:49:31.097Z,65
2019-04-11T09:50:13.943Z,90
2019-04-11T09:50:56.714Z,85
2019-04-11T09:51:38.057Z,65
2019-04-11T09:52:22.724Z,60
2019-04-11T09:53:03.648Z,60
2019-04-11T09:53:47.267Z,60
2019-04-11T09:54:32.202Z,60
2019-04-11T09:55:12.975Z,60
2019-04-11T09:55:54.533Z,60
2019-04-11T09:56:36.341Z,60
2019-04-11T09:57:18.650Z,60
2019-04-11T09:58:01.628Z,60
2019-04-11T09:58:42.583Z,75
2019-04-11T09:59:24.942Z,60
2019-04-11T10:00:05.943Z,55
2019-04-11T10:00:47.358Z,55
2019-04-11T10:01:30.905Z,55
2019-04-11T10:02:10.768Z,80
2019-04-11T10:02:52.686Z,60
2019-04-11T10:03:34.514Z,55
2019-04-11T10:04:19.102Z,55
2019-04-11T10:05:01.085Z,55
2019-04-11T10:05:45.127Z,55
2019-04-11T10:06:26.072Z,60
2019-04-11T10:07:07.372Z,60
2019-04-11T10:07:48.092Z,65
2019-04-11T10:08:29.064Z,55
2019-04-11T10:09:09.564Z,55
2019-04-11T10:09:50.455Z,60
2019-04-11T10:10:31.347Z,65
2019-04-11T10:11:11.437Z,65
2019-04-11T10:11:52.558Z,65
2019-04-11T10:12:36.076Z,80
2019-04-11T10:13:16.442Z,80
2019-04-11T10:13:57.541Z,80
2019-04-11T10:14:37.641Z,80
2019-04-11T10:15:18.900Z,80
2019-04-11T10:15:59.767Z,80
2019-04-11T10:16:42.259Z,80
2019-04-11T10:17:24.269Z,75
2019-04-11T10:18:03.110Z,75
2019-04-11T10:18:43.912Z,75
2019-04-11T10:19:24.303Z,75
2019-04-11T10:20:04.734Z,75
2019-04-11T10:20:44.988Z,75
2019-04-11T10:21:25.920Z,75
2019-04-11T10:22:06.880Z,75
2019-04-11T10:22:48.021Z,75
2019-04-11T10:23:29.165Z,75
2019-04-11T10:24:09.420Z,75
2019-04-11T10:24:48.962Z,75
2019-04-11T10:25:30.198Z,75
2019-04-11T10:26:11.767Z,75
2019-04-11T10:26:53.052Z,75
2019-04-11T10:27:33.499Z,80
2019-04-11T10:28:15.350Z,80
2019-04-11T10:28:54.452Z,80
2019-04-11T10:29:34.878Z,65
2019-04-11T11:07:46.088Z,60
2019-04-11T11:08:26.506Z,65
2019-04-11T11:09:08.106Z,65
2019-04-11T11:09:48.484Z,65
2019-04-11T11:10:28.893Z,65
2019-04-11T11:11:11.735Z,65
2019-04-11T11:11:50.524Z,65
2019-04-11T11:12:31.132Z,65
2019-04-11T11:13:12.351Z,65
2019-04-11T11:13:52.236Z,65
2019-04-11T11:14:32.966Z,60
2019-04-11T11:15:13.687Z,60
2019-04-11T11:15:54.083Z,60
2019-04-11T11:16:39.209Z,60
2019-04-11T11:17:22.173Z,60